sensor_id;sensor_type;location;lat;lon;timestamp;temperature;humidity
12166;DHT22;6146;48.128;11.476;2024-03-08T00:00:17;1.40;99.90
12166;DHT22;6146;48.128;11.476;2024-03-08T00:02:44;1.40;99.90
12166;DHT22;6146;48.128;11.476;2024-03-08T00:05:10;1.40;99.90
12166;DHT22;6146;48.128;11.476;2024-03-08T00:07:39;1.40;99.90
12166;DHT22;6146;48.128;11.476;2024-03-08T00:10:07;1.30;99.90
12166;DHT22;6146;48.128;11.476;2024-03-08T00:12:43;1.30;99.90
12166;DHT22;6146;48.128;11.476;2024-03-08T00:15:14;1.30;99.90
12166;DHT22;6146;48.128;11.476;2024-03-08T00:17:40;1.30;99.90
12166;DHT22;6146;48.128;11.476;2024-03-08T00:20:07;1.30;99.90
12166;DHT22;6146;48.128;11.476;2024-03-08T00:22:35;1.30;99.90
12166;DHT22;6146;48.128;11.476;2024-03-08T00:25:02;1.30;99.90
12166;DHT22;6146;48.128;11.476;2024-03-08T00:27:28;1.20;99.90
12166;DHT22;6146;48.128;11.476;2024-03-08T00:29:59;1.30;99.90
12166;DHT22;6146;48.128;11.476;2024-03-08T00:32:25;1.20;99.90
12166;DHT22;6146;48.128;11.476;2024-03-08T00:34:55;1.20;99.90
12166;DHT22;6146;48.128;11.476;2024-03-08T00:37:21;1.20;99.90
12166;DHT22;6146;48.128;11.476;2024-03-08T00:39:53;1.20;99.90
12166;DHT22;6146;48.128;11.476;2024-03-08T00:42:19;1.20;99.90
12166;DHT22;6146;48.128;11.476;2024-03-08T00:44:45;1.10;99.90
12166;DHT22;6146;48.128;11.476;2024-03-08T00:47:11;1.10;99.90
12166;DHT22;6146;48.128;11.476;2024-03-08T00:49:37;1.10;99.90
12166;DHT22;6146;48.128;11.476;2024-03-08T00:52:04;1.10;99.90
12166;DHT22;6146;48.128;11.476;2024-03-08T00:54:31;1.10;99.90
12166;DHT22;6146;48.128;11.476;2024-03-08T00:56:57;1.10;99.90
12166;DHT22;6146;48.128;11.476;2024-03-08T00:59:22;1.00;99.90
12166;DHT22;6146;48.128;11.476;2024-03-08T01:01:48;1.00;99.90
12166;DHT22;6146;48.128;11.476;2024-03-08T01:04:13;-1.00;99.90
12166;DHT22;6146;48.128;11.476;2024-03-08T01:06:39;1.00;99.90
12166;DHT22;6146;48.128;11.476;2024-03-08T01:09:04;1.00;99.90
12166;DHT22;6146;48.128;11.476;2024-03-08T01:11:33;1.00;99.90
12166;DHT22;6146;48.128;11.476;2024-03-08T01:13:59;1.00;99.90
12166;DHT22;6146;48.128;11.476;2024-03-08T01:16:24;0.90;99.90
12166;DHT22;6146;48.128;11.476;2024-03-08T01:18:50;0.90;99.90
12166;DHT22;6146;48.128;11.476;2024-03-08T01:21:15;0.90;99.90
12166;DHT22;6146;48.128;11.476;2024-03-08T01:23:41;0.90;99.90
12166;DHT22;6146;48.128;11.476;2024-03-08T01:26:07;0.90;99.90
12166;DHT22;6146;48.128;11.476;2024-03-08T01:28:33;0.90;99.90
12166;DHT22;6146;48.128;11.476;2024-03-08T01:31:00;0.90;99.90
12166;DHT22;6146;48.128;11.476;2024-03-08T01:33:26;0.90;99.90
12166;DHT22;6146;48.128;11.476;2024-03-08T01:35:53;0.90;99.90
12166;DHT22;6146;48.128;11.476;2024-03-08T01:38:19;0.90;99.90
12166;DHT22;6146;48.128;11.476;2024-03-08T01:40:46;0.90;99.90
12166;DHT22;6146;48.128;11.476;2024-03-08T01:43:22;0.90;99.90
12166;DHT22;6146;48.128;11.476;2024-03-08T01:45:50;0.90;99.90
12166;DHT22;6146;48.128;11.476;2024-03-08T01:48:17;0.90;99.90
12166;DHT22;6146;48.128;11.476;2024-03-08T01:50:43;0.90;99.90
12166;DHT22;6146;48.128;11.476;2024-03-08T01:53:10;0.90;99.90
12166;DHT22;6146;48.128;11.476;2024-03-08T01:55:37;0.80;99.90
12166;DHT22;6146;48.128;11.476;2024-03-08T01:58:05;0.80;99.90
12166;DHT22;6146;48.128;11.476;2024-03-08T02:00:32;0.80;99.90
12166;DHT22;6146;48.128;11.476;2024-03-08T02:02:59;0.80;99.90
12166;DHT22;6146;48.128;11.476;2024-03-08T02:05:25;0.80;99.90
12166;DHT22;6146;48.128;11.476;2024-03-08T02:07:51;0.80;99.90
12166;DHT22;6146;48.128;11.476;2024-03-08T02:10:17;0.80;99.90
12166;DHT22;6146;48.128;11.476;2024-03-08T02:12:42;0.70;99.90
12166;DHT22;6146;48.128;11.476;2024-03-08T02:15:08;0.70;99.90
12166;DHT22;6146;48.128;11.476;2024-03-08T02:17:34;0.80;99.90
12166;DHT22;6146;48.128;11.476;2024-03-08T02:20:00;0.70;99.90
12166;DHT22;6146;48.128;11.476;2024-03-08T02:22:30;0.70;99.90
12166;DHT22;6146;48.128;11.476;2024-03-08T02:24:58;0.70;99.90
12166;DHT22;6146;48.128;11.476;2024-03-08T02:27:24;0.70;99.90
12166;DHT22;6146;48.128;11.476;2024-03-08T02:29:56;0.70;99.90
12166;DHT22;6146;48.128;11.476;2024-03-08T02:32:23;0.70;99.90
12166;DHT22;6146;48.128;11.476;2024-03-08T02:34:49;0.70;99.90
12166;DHT22;6146;48.128;11.476;2024-03-08T02:37:15;0.60;99.90
12166;DHT22;6146;48.128;11.476;2024-03-08T02:39:41;0.60;99.90
12166;DHT22;6146;48.128;11.476;2024-03-08T02:42:07;0.60;99.90
12166;DHT22;6146;48.128;11.476;2024-03-08T02:44:32;0.60;99.90
12166;DHT22;6146;48.128;11.476;2024-03-08T02:46:59;0.60;99.90
12166;DHT22;6146;48.128;11.476;2024-03-08T02:49:25;0.60;99.90
12166;DHT22;6146;48.128;11.476;2024-03-08T02:51:52;0.60;99.90
12166;DHT22;6146;48.128;11.476;2024-03-08T02:54:18;0.50;99.90
12166;DHT22;6146;48.128;11.476;2024-03-08T02:56:45;0.50;99.90
12166;DHT22;6146;48.128;11.476;2024-03-08T02:59:12;0.50;99.90
12166;DHT22;6146;48.128;11.476;2024-03-08T03:01:38;0.60;99.90
12166;DHT22;6146;48.128;11.476;2024-03-08T03:04:04;0.50;99.90
12166;DHT22;6146;48.128;11.476;2024-03-08T03:06:30;0.50;99.90
12166;DHT22;6146;48.128;11.476;2024-03-08T03:08:56;0.40;99.90
12166;DHT22;6146;48.128;11.476;2024-03-08T03:11:23;0.40;99.90
12166;DHT22;6146;48.128;11.476;2024-03-08T03:13:48;0.50;99.90
12166;DHT22;6146;48.128;11.476;2024-03-08T03:16:20;0.40;99.90
12166;DHT22;6146;48.128;11.476;2024-03-08T03:18:46;0.40;99.90
12166;DHT22;6146;48.128;11.476;2024-03-08T03:21:13;0.30;99.90
12166;DHT22;6146;48.128;11.476;2024-03-08T03:23:39;0.40;99.90
12166;DHT22;6146;48.128;11.476;2024-03-08T03:26:05;0.30;99.90
12166;DHT22;6146;48.128;11.476;2024-03-08T03:28:32;0.30;99.90
12166;DHT22;6146;48.128;11.476;2024-03-08T03:30:59;0.30;99.90
12166;DHT22;6146;48.128;11.476;2024-03-08T03:33:24;0.30;99.90
12166;DHT22;6146;48.128;11.476;2024-03-08T03:35:50;0.30;99.90
12166;DHT22;6146;48.128;11.476;2024-03-08T03:38:17;0.20;99.90
12166;DHT22;6146;48.128;11.476;2024-03-08T03:40:45;0.20;99.90
12166;DHT22;6146;48.128;11.476;2024-03-08T03:43:11;0.20;99.90
12166;DHT22;6146;48.128;11.476;2024-03-08T03:45:37;0.20;99.90
12166;DHT22;6146;48.128;11.476;2024-03-08T03:48:06;0.20;99.90
12166;DHT22;6146;48.128;11.476;2024-03-08T03:50:34;0.30;99.90
12166;DHT22;6146;48.128;11.476;2024-03-08T03:53:00;0.20;99.90
12166;DHT22;6146;48.128;11.476;2024-03-08T03:55:25;0.20;99.90
12166;DHT22;6146;48.128;11.476;2024-03-08T03:57:52;0.20;99.90
12166;DHT22;6146;48.128;11.476;2024-03-08T04:00:18;0.20;99.90
12166;DHT22;6146;48.128;11.476;2024-03-08T04:02:44;0.20;99.90
12166;DHT22;6146;48.128;11.476;2024-03-08T04:05:10;0.20;99.90
12166;DHT22;6146;48.128;11.476;2024-03-08T04:07:37;0.20;99.90
12166;DHT22;6146;48.128;11.476;2024-03-08T04:10:03;0.20;99.90
12166;DHT22;6146;48.128;11.476;2024-03-08T04:12:32;0.20;99.90
12166;DHT22;6146;48.128;11.476;2024-03-08T04:14:57;0.20;99.90
12166;DHT22;6146;48.128;11.476;2024-03-08T04:17:23;0.20;99.90
12166;DHT22;6146;48.128;11.476;2024-03-08T04:19:52;0.10;99.90
12166;DHT22;6146;48.128;11.476;2024-03-08T04:22:18;0.20;99.90
12166;DHT22;6146;48.128;11.476;2024-03-08T04:24:44;0.10;99.90
12166;DHT22;6146;48.128;11.476;2024-03-08T04:27:10;0.20;99.90
12166;DHT22;6146;48.128;11.476;2024-03-08T04:29:35;0.10;99.90
12166;DHT22;6146;48.128;11.476;2024-03-08T04:32:03;0.20;99.90
12166;DHT22;6146;48.128;11.476;2024-03-08T04:34:29;0.10;99.90
12166;DHT22;6146;48.128;11.476;2024-03-08T04:36:57;0.10;99.90
12166;DHT22;6146;48.128;11.476;2024-03-08T04:39:23;0.10;99.90
12166;DHT22;6146;48.128;11.476;2024-03-08T04:41:49;0.10;99.90
12166;DHT22;6146;48.128;11.476;2024-03-08T04:44:15;0.10;99.90
12166;DHT22;6146;48.128;11.476;2024-03-08T04:46:41;0.10;99.90
12166;DHT22;6146;48.128;11.476;2024-03-08T04:49:07;0.10;99.90
12166;DHT22;6146;48.128;11.476;2024-03-08T04:51:33;0.10;99.90
12166;DHT22;6146;48.128;11.476;2024-03-08T04:53:59;0.10;99.90
12166;DHT22;6146;48.128;11.476;2024-03-08T04:56:25;0.10;99.90
12166;DHT22;6146;48.128;11.476;2024-03-08T04:58:51;0.10;99.90
12166;DHT22;6146;48.128;11.476;2024-03-08T05:01:16;0.10;99.90
12166;DHT22;6146;48.128;11.476;2024-03-08T05:03:42;0.10;99.90
12166;DHT22;6146;48.128;11.476;2024-03-08T05:06:08;0.20;99.90
12166;DHT22;6146;48.128;11.476;2024-03-08T05:08:34;0.10;99.90
12166;DHT22;6146;48.128;11.476;2024-03-08T05:11:00;0.20;99.90
12166;DHT22;6146;48.128;11.476;2024-03-08T05:13:30;0.20;99.90
12166;DHT22;6146;48.128;11.476;2024-03-08T05:15:56;0.20;99.90
12166;DHT22;6146;48.128;11.476;2024-03-08T05:18:24;0.20;99.90
12166;DHT22;6146;48.128;11.476;2024-03-08T05:20:49;0.20;99.90
12166;DHT22;6146;48.128;11.476;2024-03-08T05:23:16;0.20;99.90
12166;DHT22;6146;48.128;11.476;2024-03-08T05:25:42;0.20;99.90
12166;DHT22;6146;48.128;11.476;2024-03-08T05:28:07;0.20;99.90
12166;DHT22;6146;48.128;11.476;2024-03-08T05:30:34;0.20;99.90
12166;DHT22;6146;48.128;11.476;2024-03-08T05:33:01;0.30;99.90
12166;DHT22;6146;48.128;11.476;2024-03-08T05:35:27;0.30;99.90
12166;DHT22;6146;48.128;11.476;2024-03-08T05:37:52;0.30;99.90
12166;DHT22;6146;48.128;11.476;2024-03-08T05:40:18;0.40;99.90
12166;DHT22;6146;48.128;11.476;2024-03-08T05:42:44;0.30;99.90
12166;DHT22;6146;48.128;11.476;2024-03-08T05:45:10;0.30;99.90
12166;DHT22;6146;48.128;11.476;2024-03-08T05:47:36;0.40;99.90
12166;DHT22;6146;48.128;11.476;2024-03-08T05:50:02;0.30;99.90
12166;DHT22;6146;48.128;11.476;2024-03-08T05:52:27;0.30;99.90
12166;DHT22;6146;48.128;11.476;2024-03-08T05:54:53;0.30;99.90
12166;DHT22;6146;48.128;11.476;2024-03-08T05:57:18;0.30;99.90
12166;DHT22;6146;48.128;11.476;2024-03-08T05:59:44;0.30;99.90
12166;DHT22;6146;48.128;11.476;2024-03-08T06:02:10;0.30;99.90
12166;DHT22;6146;48.128;11.476;2024-03-08T06:04:35;0.30;99.90
12166;DHT22;6146;48.128;11.476;2024-03-08T06:07:01;0.40;99.90
12166;DHT22;6146;48.128;11.476;2024-03-08T06:09:28;0.40;99.90
12166;DHT22;6146;48.128;11.476;2024-03-08T06:11:54;0.50;99.90
12166;DHT22;6146;48.128;11.476;2024-03-08T06:14:20;0.50;99.90
12166;DHT22;6146;48.128;11.476;2024-03-08T06:16:46;0.50;99.90
12166;DHT22;6146;48.128;11.476;2024-03-08T06:19:12;0.60;99.90
12166;DHT22;6146;48.128;11.476;2024-03-08T06:21:38;0.60;99.90
12166;DHT22;6146;48.128;11.476;2024-03-08T06:24:04;0.70;99.90
12166;DHT22;6146;48.128;11.476;2024-03-08T06:26:30;0.70;99.90
12166;DHT22;6146;48.128;11.476;2024-03-08T06:28:56;0.70;99.90
12166;DHT22;6146;48.128;11.476;2024-03-08T06:31:21;0.70;99.90
12166;DHT22;6146;48.128;11.476;2024-03-08T06:33:47;1.10;99.90
12166;DHT22;6146;48.128;11.476;2024-03-08T06:36:18;0.80;99.90
12166;DHT22;6146;48.128;11.476;2024-03-08T06:38:49;0.70;99.90
12166;DHT22;6146;48.128;11.476;2024-03-08T06:41:15;0.70;99.90
12166;DHT22;6146;48.128;11.476;2024-03-08T06:43:45;0.70;99.90
12166;DHT22;6146;48.128;11.476;2024-03-08T06:46:11;0.60;99.90
12166;DHT22;6146;48.128;11.476;2024-03-08T06:48:38;0.70;99.90
12166;DHT22;6146;48.128;11.476;2024-03-08T06:51:04;0.70;99.90
12166;DHT22;6146;48.128;11.476;2024-03-08T06:53:30;0.80;99.90
12166;DHT22;6146;48.128;11.476;2024-03-08T06:55:57;0.90;99.90
12166;DHT22;6146;48.128;11.476;2024-03-08T06:58:23;1.00;99.90
12166;DHT22;6146;48.128;11.476;2024-03-08T07:00:48;1.00;99.90
12166;DHT22;6146;48.128;11.476;2024-03-08T07:03:17;1.00;99.90
12166;DHT22;6146;48.128;11.476;2024-03-08T07:05:43;1.10;99.90
12166;DHT22;6146;48.128;11.476;2024-03-08T07:08:08;1.10;99.90
12166;DHT22;6146;48.128;11.476;2024-03-08T07:10:34;1.20;99.90
12166;DHT22;6146;48.128;11.476;2024-03-08T07:13:01;1.30;99.90
12166;DHT22;6146;48.128;11.476;2024-03-08T07:15:29;1.40;99.90
12166;DHT22;6146;48.128;11.476;2024-03-08T07:17:55;1.50;99.90
12166;DHT22;6146;48.128;11.476;2024-03-08T07:20:21;1.50;99.90
12166;DHT22;6146;48.128;11.476;2024-03-08T07:22:47;1.40;99.90
12166;DHT22;6146;48.128;11.476;2024-03-08T07:25:13;1.40;99.90
12166;DHT22;6146;48.128;11.476;2024-03-08T07:27:55;1.20;99.90
12166;DHT22;6146;48.128;11.476;2024-03-08T07:30:25;0.90;99.90
12166;DHT22;6146;48.128;11.476;2024-03-08T07:33:09;1.00;99.90
12166;DHT22;6146;48.128;11.476;2024-03-08T07:35:40;1.10;99.90
12166;DHT22;6146;48.128;11.476;2024-03-08T07:38:08;1.10;99.90
12166;DHT22;6146;48.128;11.476;2024-03-08T07:40:35;1.10;99.90
12166;DHT22;6146;48.128;11.476;2024-03-08T07:43:01;1.00;99.90
12166;DHT22;6146;48.128;11.476;2024-03-08T07:45:28;1.10;99.90
12166;DHT22;6146;48.128;11.476;2024-03-08T07:47:53;1.20;99.90
12166;DHT22;6146;48.128;11.476;2024-03-08T07:50:19;1.10;99.90
12166;DHT22;6146;48.128;11.476;2024-03-08T07:52:44;1.20;99.90
12166;DHT22;6146;48.128;11.476;2024-03-08T07:55:10;1.30;99.90
12166;DHT22;6146;48.128;11.476;2024-03-08T07:57:36;1.30;99.90
12166;DHT22;6146;48.128;11.476;2024-03-08T08:00:05;1.50;99.90
12166;DHT22;6146;48.128;11.476;2024-03-08T08:02:33;1.80;99.90
12166;DHT22;6146;48.128;11.476;2024-03-08T08:04:58;2.20;99.90
12166;DHT22;6146;48.128;11.476;2024-03-08T08:07:24;2.20;99.90
12166;DHT22;6146;48.128;11.476;2024-03-08T08:09:50;2.30;99.90
12166;DHT22;6146;48.128;11.476;2024-03-08T08:12:15;2.60;99.90
12166;DHT22;6146;48.128;11.476;2024-03-08T08:14:41;2.80;99.90
12166;DHT22;6146;48.128;11.476;2024-03-08T08:17:07;2.90;99.90
12166;DHT22;6146;48.128;11.476;2024-03-08T08:19:34;3.00;99.90
12166;DHT22;6146;48.128;11.476;2024-03-08T08:22:01;3.10;99.90
12166;DHT22;6146;48.128;11.476;2024-03-08T08:24:27;3.40;99.90
12166;DHT22;6146;48.128;11.476;2024-03-08T08:26:53;3.90;99.90
12166;DHT22;6146;48.128;11.476;2024-03-08T08:29:19;4.50;99.90
12166;DHT22;6146;48.128;11.476;2024-03-08T08:31:45;5.30;99.90
12166;DHT22;6146;48.128;11.476;2024-03-08T08:34:11;5.50;99.90
12166;DHT22;6146;48.128;11.476;2024-03-08T08:36:40;6.00;99.90
12166;DHT22;6146;48.128;11.476;2024-03-08T08:39:06;6.40;99.90
12166;DHT22;6146;48.128;11.476;2024-03-08T08:41:37;6.60;99.90
12166;DHT22;6146;48.128;11.476;2024-03-08T08:44:03;6.70;99.90
12166;DHT22;6146;48.128;11.476;2024-03-08T08:46:28;6.90;99.90
12166;DHT22;6146;48.128;11.476;2024-03-08T08:48:54;7.10;99.90
12166;DHT22;6146;48.128;11.476;2024-03-08T08:51:20;6.70;99.90
12166;DHT22;6146;48.128;11.476;2024-03-08T08:53:46;7.30;99.90
12166;DHT22;6146;48.128;11.476;2024-03-08T08:56:13;8.60;99.90
12166;DHT22;6146;48.128;11.476;2024-03-08T08:58:44;8.90;99.90
12166;DHT22;6146;48.128;11.476;2024-03-08T09:01:10;8.00;99.90
12166;DHT22;6146;48.128;11.476;2024-03-08T09:03:37;8.40;99.90
12166;DHT22;6146;48.128;11.476;2024-03-08T09:06:04;9.00;99.90
12166;DHT22;6146;48.128;11.476;2024-03-08T09:08:29;9.20;99.90
12166;DHT22;6146;48.128;11.476;2024-03-08T09:10:55;8.50;99.90
12166;DHT22;6146;48.128;11.476;2024-03-08T09:13:21;8.90;99.90
12166;DHT22;6146;48.128;11.476;2024-03-08T09:15:47;9.60;99.90
12166;DHT22;6146;48.128;11.476;2024-03-08T09:18:12;9.50;99.90
12166;DHT22;6146;48.128;11.476;2024-03-08T09:20:38;10.10;99.90
12166;DHT22;6146;48.128;11.476;2024-03-08T09:23:03;11.00;99.90
12166;DHT22;6146;48.128;11.476;2024-03-08T09:25:29;11.80;99.90
12166;DHT22;6146;48.128;11.476;2024-03-08T09:27:55;12.60;99.90
12166;DHT22;6146;48.128;11.476;2024-03-08T09:30:20;13.10;99.90
12166;DHT22;6146;48.128;11.476;2024-03-08T09:32:47;13.60;98.50
12166;DHT22;6146;48.128;11.476;2024-03-08T09:35:12;13.10;98.90
12166;DHT22;6146;48.128;11.476;2024-03-08T09:37:38;12.20;99.90
12166;DHT22;6146;48.128;11.476;2024-03-08T09:40:04;12.60;99.90
12166;DHT22;6146;48.128;11.476;2024-03-08T09:42:35;13.50;98.60
12166;DHT22;6146;48.128;11.476;2024-03-08T09:45:10;12.90;97.90
12166;DHT22;6146;48.128;11.476;2024-03-08T09:47:39;12.50;98.70
12166;DHT22;6146;48.128;11.476;2024-03-08T09:50:08;13.10;97.80
12166;DHT22;6146;48.128;11.476;2024-03-08T09:52:41;12.40;99.10
12166;DHT22;6146;48.128;11.476;2024-03-08T09:55:10;12.90;99.00
12166;DHT22;6146;48.128;11.476;2024-03-08T09:57:40;13.30;97.00
12166;DHT22;6146;48.128;11.476;2024-03-08T10:00:06;13.90;96.20
12166;DHT22;6146;48.128;11.476;2024-03-08T10:02:50;14.00;95.20
12166;DHT22;6146;48.128;11.476;2024-03-08T10:05:18;14.10;93.50
12166;DHT22;6146;48.128;11.476;2024-03-08T10:07:43;12.40;96.60
12166;DHT22;6146;48.128;11.476;2024-03-08T10:10:09;13.40;96.90
12166;DHT22;6146;48.128;11.476;2024-03-08T10:12:38;14.80;94.60
12166;DHT22;6146;48.128;11.476;2024-03-08T10:15:07;15.30;92.40
12166;DHT22;6146;48.128;11.476;2024-03-08T10:17:34;14.50;93.40
12166;DHT22;6146;48.128;11.476;2024-03-08T10:20:00;14.40;92.90
12166;DHT22;6146;48.128;11.476;2024-03-08T10:22:26;13.20;94.40
12166;DHT22;6146;48.128;11.476;2024-03-08T10:24:52;12.90;95.20
12166;DHT22;6146;48.128;11.476;2024-03-08T10:27:18;13.10;95.20
12166;DHT22;6146;48.128;11.476;2024-03-08T10:29:49;13.10;94.50
12166;DHT22;6146;48.128;11.476;2024-03-08T10:32:17;12.40;96.40
12166;DHT22;6146;48.128;11.476;2024-03-08T10:34:42;12.80;95.90
12166;DHT22;6146;48.128;11.476;2024-03-08T10:37:14;12.10;96.50
12166;DHT22;6146;48.128;11.476;2024-03-08T10:39:46;11.80;98.20
12166;DHT22;6146;48.128;11.476;2024-03-08T10:42:16;13.00;97.00
12166;DHT22;6146;48.128;11.476;2024-03-08T10:47:49;13.70;94.60
12166;DHT22;6146;48.128;11.476;2024-03-08T10:50:19;14.20;94.80
12166;DHT22;6146;48.128;11.476;2024-03-08T10:52:50;15.60;93.00
12166;DHT22;6146;48.128;11.476;2024-03-08T10:55:18;16.10;90.60
12166;DHT22;6146;48.128;11.476;2024-03-08T10:57:45;15.60;90.40
12166;DHT22;6146;48.128;11.476;2024-03-08T11:00:12;15.00;91.30
12166;DHT22;6146;48.128;11.476;2024-03-08T11:02:38;14.30;91.00
12166;DHT22;6146;48.128;11.476;2024-03-08T11:05:04;14.20;92.70
12166;DHT22;6146;48.128;11.476;2024-03-08T11:07:34;15.30;91.10
12166;DHT22;6146;48.128;11.476;2024-03-08T11:10:02;16.00;90.10
12166;DHT22;6146;48.128;11.476;2024-03-08T11:12:36;15.10;87.90
12166;DHT22;6146;48.128;11.476;2024-03-08T11:15:10;14.70;90.80
12166;DHT22;6146;48.128;11.476;2024-03-08T11:17:40;13.90;91.10
12166;DHT22;6146;48.128;11.476;2024-03-08T11:20:13;12.80;92.90
12166;DHT22;6146;48.128;11.476;2024-03-08T11:22:42;12.50;94.60
12166;DHT22;6146;48.128;11.476;2024-03-08T11:30:34;15.60;89.40
12166;DHT22;6146;48.128;11.476;2024-03-08T11:33:01;15.50;86.70
12166;DHT22;6146;48.128;11.476;2024-03-08T11:35:28;14.20;90.40
12166;DHT22;6146;48.128;11.476;2024-03-08T11:37:54;14.80;89.50
12166;DHT22;6146;48.128;11.476;2024-03-08T11:40:20;14.50;89.70
12166;DHT22;6146;48.128;11.476;2024-03-08T11:42:47;14.50;90.20
12166;DHT22;6146;48.128;11.476;2024-03-08T11:45:17;15.20;88.60
12166;DHT22;6146;48.128;11.476;2024-03-08T11:47:46;15.30;86.70
12166;DHT22;6146;48.128;11.476;2024-03-08T11:50:14;15.20;87.60
12166;DHT22;6146;48.128;11.476;2024-03-08T11:52:40;16.30;86.60
12166;DHT22;6146;48.128;11.476;2024-03-08T11:55:06;16.90;83.00
12166;DHT22;6146;48.128;11.476;2024-03-08T11:57:32;17.20;81.50
12166;DHT22;6146;48.128;11.476;2024-03-08T11:59:59;16.00;81.00
12166;DHT22;6146;48.128;11.476;2024-03-08T12:02:35;16.40;81.40
12166;DHT22;6146;48.128;11.476;2024-03-08T12:05:06;16.30;82.60
12166;DHT22;6146;48.128;11.476;2024-03-08T12:07:32;17.10;80.50
12166;DHT22;6146;48.128;11.476;2024-03-08T12:10:17;17.80;78.00
12166;DHT22;6146;48.128;11.476;2024-03-08T12:12:47;17.50;77.40
12166;DHT22;6146;48.128;11.476;2024-03-08T12:15:15;16.70;77.80
12166;DHT22;6146;48.128;11.476;2024-03-08T12:17:41;15.80;80.50
12166;DHT22;6146;48.128;11.476;2024-03-08T12:20:12;15.60;82.90
12166;DHT22;6146;48.128;11.476;2024-03-08T12:22:42;15.70;84.10
12166;DHT22;6146;48.128;11.476;2024-03-08T12:25:08;15.90;80.80
12166;DHT22;6146;48.128;11.476;2024-03-08T12:27:39;16.10;79.90
12166;DHT22;6146;48.128;11.476;2024-03-08T12:33:09;16.00;79.40
12166;DHT22;6146;48.128;11.476;2024-03-08T12:35:38;14.80;85.40
12166;DHT22;6146;48.128;11.476;2024-03-08T12:38:04;14.80;86.00
12166;DHT22;6146;48.128;11.476;2024-03-08T12:40:32;15.10;84.20
12166;DHT22;6146;48.128;11.476;2024-03-08T12:43:01;15.70;85.00
12166;DHT22;6146;48.128;11.476;2024-03-08T12:45:27;16.80;79.20
12166;DHT22;6146;48.128;11.476;2024-03-08T12:47:54;16.80;75.90
12166;DHT22;6146;48.128;11.476;2024-03-08T12:50:21;16.40;78.80
12166;DHT22;6146;48.128;11.476;2024-03-08T12:52:47;16.10;78.20
12166;DHT22;6146;48.128;11.476;2024-03-08T12:55:14;15.30;82.10
12166;DHT22;6146;48.128;11.476;2024-03-08T12:57:41;15.30;81.50
12166;DHT22;6146;48.128;11.476;2024-03-08T13:00:08;16.50;79.50
12166;DHT22;6146;48.128;11.476;2024-03-08T13:02:39;16.90;77.60
12166;DHT22;6146;48.128;11.476;2024-03-08T13:05:05;16.30;78.10
12166;DHT22;6146;48.128;11.476;2024-03-08T13:07:31;15.20;81.70
12166;DHT22;6146;48.128;11.476;2024-03-08T13:09:57;15.30;81.50
12166;DHT22;6146;48.128;11.476;2024-03-08T13:12:25;15.80;80.70
12166;DHT22;6146;48.128;11.476;2024-03-08T13:14:50;16.10;81.30
12166;DHT22;6146;48.128;11.476;2024-03-08T13:17:16;15.90;77.90
12166;DHT22;6146;48.128;11.476;2024-03-08T13:19:44;15.60;81.40
12166;DHT22;6146;48.128;11.476;2024-03-08T13:22:09;15.80;77.90
12166;DHT22;6146;48.128;11.476;2024-03-08T13:24:39;16.00;77.70
12166;DHT22;6146;48.128;11.476;2024-03-08T13:27:06;16.50;77.80
12166;DHT22;6146;48.128;11.476;2024-03-08T13:29:42;16.80;76.00
12166;DHT22;6146;48.128;11.476;2024-03-08T13:32:08;16.40;77.10
12166;DHT22;6146;48.128;11.476;2024-03-08T13:34:37;15.50;81.70
12166;DHT22;6146;48.128;11.476;2024-03-08T13:37:05;16.40;81.10
12166;DHT22;6146;48.128;11.476;2024-03-08T13:39:31;17.20;78.40
12166;DHT22;6146;48.128;11.476;2024-03-08T13:42:07;16.60;76.70
12166;DHT22;6146;48.128;11.476;2024-03-08T13:44:35;15.40;80.90
12166;DHT22;6146;48.128;11.476;2024-03-08T13:47:01;14.70;84.80
12166;DHT22;6146;48.128;11.476;2024-03-08T13:49:30;14.80;82.80
12166;DHT22;6146;48.128;11.476;2024-03-08T13:51:55;13.60;85.90
12166;DHT22;6146;48.128;11.476;2024-03-08T13:54:24;13.40;89.00
12166;DHT22;6146;48.128;11.476;2024-03-08T13:56:50;13.60;88.60
12166;DHT22;6146;48.128;11.476;2024-03-08T13:59:17;13.80;87.50
12166;DHT22;6146;48.128;11.476;2024-03-08T14:01:43;12.80;89.40
12166;DHT22;6146;48.128;11.476;2024-03-08T14:04:09;11.60;92.00
12166;DHT22;6146;48.128;11.476;2024-03-08T14:06:35;11.20;93.00
12166;DHT22;6146;48.128;11.476;2024-03-08T14:09:00;10.60;93.70
12166;DHT22;6146;48.128;11.476;2024-03-08T14:11:27;10.50;94.40
12166;DHT22;6146;48.128;11.476;2024-03-08T14:13:53;10.50;94.70
12166;DHT22;6146;48.128;11.476;2024-03-08T14:16:19;10.40;94.90
12166;DHT22;6146;48.128;11.476;2024-03-08T14:18:45;10.40;94.70
12166;DHT22;6146;48.128;11.476;2024-03-08T14:21:10;10.50;95.10
12166;DHT22;6146;48.128;11.476;2024-03-08T14:23:36;10.70;95.00
12166;DHT22;6146;48.128;11.476;2024-03-08T14:26:03;10.50;95.00
12166;DHT22;6146;48.128;11.476;2024-03-08T14:28:29;10.50;95.50
12166;DHT22;6146;48.128;11.476;2024-03-08T14:30:55;10.70;95.40
12166;DHT22;6146;48.128;11.476;2024-03-08T14:33:20;10.60;94.70
12166;DHT22;6146;48.128;11.476;2024-03-08T14:35:46;10.20;95.50
12166;DHT22;6146;48.128;11.476;2024-03-08T14:38:12;10.20;96.00
12166;DHT22;6146;48.128;11.476;2024-03-08T14:40:39;10.10;95.80
12166;DHT22;6146;48.128;11.476;2024-03-08T14:43:05;10.10;95.60
12166;DHT22;6146;48.128;11.476;2024-03-08T14:45:31;10.10;96.00
12166;DHT22;6146;48.128;11.476;2024-03-08T14:47:57;10.10;96.10
12166;DHT22;6146;48.128;11.476;2024-03-08T14:50:23;10.10;96.40
12166;DHT22;6146;48.128;11.476;2024-03-08T14:52:51;10.10;96.70
12166;DHT22;6146;48.128;11.476;2024-03-08T14:55:17;10.00;96.60
12166;DHT22;6146;48.128;11.476;2024-03-08T14:57:45;10.10;96.80
12166;DHT22;6146;48.128;11.476;2024-03-08T15:00:12;10.10;97.00
12166;DHT22;6146;48.128;11.476;2024-03-08T15:02:45;10.30;96.60
12166;DHT22;6146;48.128;11.476;2024-03-08T15:05:10;10.20;96.70
12166;DHT22;6146;48.128;11.476;2024-03-08T15:07:40;10.30;96.40
12166;DHT22;6146;48.128;11.476;2024-03-08T15:10:08;10.30;96.50
12166;DHT22;6146;48.128;11.476;2024-03-08T15:12:41;10.10;96.60
12166;DHT22;6146;48.128;11.476;2024-03-08T15:15:08;9.90;96.60
12166;DHT22;6146;48.128;11.476;2024-03-08T15:17:34;9.90;96.90
12166;DHT22;6146;48.128;11.476;2024-03-08T15:20:03;10.00;97.00
12166;DHT22;6146;48.128;11.476;2024-03-08T15:22:29;10.10;97.10
12166;DHT22;6146;48.128;11.476;2024-03-08T15:24:55;9.90;96.60
12166;DHT22;6146;48.128;11.476;2024-03-08T15:27:23;9.80;97.10
12166;DHT22;6146;48.128;11.476;2024-03-08T15:29:49;9.70;97.30
12166;DHT22;6146;48.128;11.476;2024-03-08T15:32:17;9.70;98.10
12166;DHT22;6146;48.128;11.476;2024-03-08T15:34:46;9.70;98.00
12166;DHT22;6146;48.128;11.476;2024-03-08T15:37:11;9.60;98.10
12166;DHT22;6146;48.128;11.476;2024-03-08T15:39:45;9.50;98.30
12166;DHT22;6146;48.128;11.476;2024-03-08T15:42:11;9.60;98.20
12166;DHT22;6146;48.128;11.476;2024-03-08T15:44:37;9.60;98.30
12166;DHT22;6146;48.128;11.476;2024-03-08T15:47:04;9.50;98.00
12166;DHT22;6146;48.128;11.476;2024-03-08T15:49:32;9.40;98.10